createdAt,value
2018-04-04T00:01:35.779Z,20.93
2018-04-04T00:04:01.942Z,20.94
2018-04-04T00:06:28.131Z,20.92
2018-04-04T00:08:54.331Z,20.92
2018-04-04T00:11:20.585Z,20.96
2018-04-04T00:13:47.063Z,20.96
2018-04-04T00:16:13.264Z,20.95
2018-04-04T00:18:39.446Z,20.94
2018-04-04T00:21:05.651Z,20.94
2018-04-04T00:23:31.911Z,20.92
2018-04-04T00:25:58.207Z,20.90
2018-04-04T00:28:24.635Z,20.89
2018-04-04T00:30:51.217Z,20.89
2018-04-04T00:33:17.404Z,20.89
2018-04-04T00:35:43.573Z,20.89
2018-04-04T00:38:09.909Z,20.87
2018-04-04T00:40:36.131Z,20.87
2018-04-04T00:43:02.400Z,20.87
2018-04-04T00:45:28.627Z,20.87
2018-04-04T00:47:54.854Z,20.85
2018-04-04T00:50:21.057Z,20.86
2018-04-04T00:52:47.551Z,20.86
2018-04-04T00:55:13.761Z,20.85
2018-04-04T00:57:39.983Z,20.83
2018-04-04T01:00:06.416Z,20.83
2018-04-04T01:02:32.675Z,20.83
2018-04-04T01:04:58.877Z,20.83
2018-04-04T01:07:25.052Z,20.83
2018-04-04T01:09:51.849Z,20.83
2018-04-04T01:12:18.040Z,20.85
2018-04-04T01:14:44.300Z,20.85
2018-04-04T01:17:10.499Z,20.85
2018-04-04T01:19:36.726Z,20.84
2018-04-04T01:22:02.975Z,20.83
2018-04-04T01:24:29.530Z,20.83
2018-04-04T01:26:55.738Z,20.83
2018-04-04T01:29:21.910Z,20.83
2018-04-04T01:31:48.409Z,20.82
2018-04-04T01:34:14.619Z,20.82
2018-04-04T01:36:40.859Z,20.81
2018-04-04T01:39:07.036Z,20.82
2018-04-04T01:41:33.531Z,20.81
2018-04-04T01:43:59.721Z,20.81
2018-04-04T01:46:25.925Z,20.82
2018-04-04T01:48:52.183Z,20.82
2018-04-04T01:51:18.358Z,20.81
2018-04-04T01:53:44.533Z,20.81
2018-04-04T01:56:10.751Z,20.82
2018-04-04T01:58:37.755Z,20.82
2018-04-04T02:01:03.994Z,20.81
2018-04-04T02:03:30.204Z,20.81
2018-04-04T02:05:56.404Z,20.78
2018-04-04T02:08:22.673Z,20.81
2018-04-04T02:10:49.187Z,20.81
2018-04-04T02:13:15.436Z,20.80
2018-04-04T02:15:41.711Z,20.81
2018-04-04T02:18:08.178Z,20.81
2018-04-04T02:20:34.380Z,20.80
2018-04-04T02:23:00.602Z,20.79
2018-04-04T02:25:26.832Z,20.80
2018-04-04T02:27:53.012Z,20.80
2018-04-04T02:30:19.254Z,20.81
2018-04-04T02:32:45.432Z,20.80
2018-04-04T02:35:11.655Z,20.81
2018-04-04T02:37:37.862Z,20.80
2018-04-04T02:40:04.035Z,20.83
2018-04-04T02:42:30.281Z,20.83
2018-04-04T02:44:56.464Z,20.82
2018-04-04T02:47:22.660Z,20.82
2018-04-04T02:49:48.848Z,20.80
2018-04-04T02:52:15.055Z,20.79
2018-04-04T02:54:41.717Z,20.78
2018-04-04T02:57:08.244Z,20.76
2018-04-04T02:59:34.427Z,20.76
2018-04-04T03:02:00.648Z,20.75
2018-04-04T03:04:27.131Z,20.74
2018-04-04T03:06:53.700Z,20.72
2018-04-04T03:09:19.876Z,20.72
2018-04-04T03:11:46.324Z,20.73
2018-04-04T03:14:12.589Z,20.71
2018-04-04T03:16:39.086Z,20.71
2018-04-04T03:19:05.254Z,20.73
2018-04-04T03:21:31.461Z,20.70
2018-04-04T03:23:57.703Z,20.59
2018-04-04T03:26:23.883Z,20.71
2018-04-04T03:28:50.452Z,20.69
2018-04-04T03:31:16.641Z,20.69
2018-04-04T03:33:43.093Z,20.70
2018-04-04T03:36:09.253Z,20.69
2018-04-04T03:38:35.459Z,20.68
2018-04-04T03:41:01.987Z,20.69
2018-04-04T03:43:28.194Z,20.71
2018-04-04T03:45:54.425Z,20.71
2018-04-04T03:48:20.610Z,20.71
2018-04-04T03:50:46.801Z,20.71
2018-04-04T03:53:13.347Z,20.71
2018-04-04T03:55:39.521Z,20.71
2018-04-04T03:58:06.147Z,20.69
2018-04-04T04:00:32.323Z,20.66
2018-04-04T04:02:58.759Z,20.67
2018-04-04T04:05:24.988Z,20.67
2018-04-04T04:07:51.196Z,20.65
2018-04-04T04:10:17.455Z,20.66
2018-04-04T04:12:43.989Z,20.67
2018-04-04T04:15:10.304Z,20.69
2018-04-04T04:17:36.474Z,20.70
2018-04-04T04:20:02.888Z,20.70
2018-04-04T04:22:29.459Z,20.69
2018-04-04T04:24:55.671Z,20.67
2018-04-04T04:27:21.838Z,20.65
2018-04-04T04:29:48.405Z,20.65
2018-04-04T04:32:14.578Z,20.62
2018-04-04T04:34:40.734Z,20.59
2018-04-04T04:37:06.946Z,20.57
2018-04-04T04:39:33.437Z,20.57
2018-04-04T04:41:59.739Z,20.55
2018-04-04T04:44:26.274Z,20.55
2018-04-04T04:46:52.621Z,20.51
2018-04-04T04:49:18.873Z,20.47
2018-04-04T04:51:45.077Z,20.46
2018-04-04T04:54:11.253Z,20.45
2018-04-04T04:56:37.517Z,20.45
2018-04-04T04:59:03.711Z,20.44
2018-04-04T05:01:30.180Z,20.42
2018-04-04T05:03:56.398Z,20.44
2018-04-04T05:06:22.597Z,20.44
2018-04-04T05:08:49.066Z,20.43
2018-04-04T05:11:15.246Z,20.43
2018-04-04T05:13:41.456Z,20.43
2018-04-04T05:16:07.954Z,20.42
2018-04-04T05:18:34.190Z,20.42
2018-04-04T05:21:01.533Z,20.42
2018-04-04T05:23:27.723Z,20.43
2018-04-04T05:25:54.019Z,20.42
2018-04-04T05:28:20.218Z,20.46
2018-04-04T05:30:46.823Z,20.47
2018-04-04T05:33:13.008Z,20.55
2018-04-04T05:35:39.238Z,20.59
2018-04-04T05:38:05.492Z,20.61
2018-04-04T05:40:32.078Z,20.64
2018-04-04T05:42:58.302Z,20.65
2018-04-04T05:45:24.483Z,20.66
2018-04-04T05:47:50.877Z,20.70
2018-04-04T05:50:17.094Z,20.73
2018-04-04T05:52:43.328Z,20.75
2018-04-04T05:55:09.603Z,20.74
2018-04-04T05:57:48.479Z,20.76
2018-04-04T06:00:14.858Z,20.76
2018-04-04T06:02:41.070Z,20.83
2018-04-04T06:05:07.418Z,20.83
2018-04-04T06:07:33.674Z,20.84
2018-04-04T06:09:59.898Z,20.80
2018-04-04T06:12:26.474Z,20.87
2018-04-04T06:14:52.646Z,20.89
2018-04-04T06:17:19.117Z,20.93
2018-04-04T06:19:45.340Z,20.96
2018-04-04T06:22:11.556Z,20.99
2018-04-04T06:24:37.752Z,21.04
2018-04-04T06:27:03.983Z,21.03
2018-04-04T06:29:30.253Z,20.99
2018-04-04T06:31:56.698Z,20.98
2018-04-04T06:34:22.911Z,21.02
2018-04-04T06:36:49.146Z,21.03
2018-04-04T06:39:15.352Z,21.05
2018-04-04T06:41:41.515Z,21.01
2018-04-04T06:44:08.052Z,20.96
2018-04-04T06:46:34.574Z,20.97
2018-04-04T06:49:01.004Z,20.95
2018-04-04T06:51:27.224Z,20.91
2018-04-04T06:53:53.465Z,20.92
2018-04-04T06:56:19.642Z,20.92
2018-04-04T06:58:45.916Z,20.91
2018-04-04T07:01:12.463Z,20.89
2018-04-04T07:03:38.684Z,20.90
2018-04-04T07:06:04.882Z,20.91
2018-04-04T07:08:31.055Z,20.90
2018-04-04T07:10:57.575Z,20.90
2018-04-04T07:13:23.933Z,20.91
2018-04-04T07:15:50.110Z,20.93
2018-04-04T07:18:16.280Z,20.93
2018-04-04T07:20:42.790Z,20.93
2018-04-04T07:23:09.228Z,20.95
2018-04-04T07:25:35.396Z,21.00
2018-04-04T07:28:01.603Z,21.05
2018-04-04T07:30:27.776Z,21.03
2018-04-04T07:32:54.005Z,21.02
2018-04-04T07:35:20.237Z,21.07
2018-04-04T07:37:46.464Z,21.04
2018-04-04T07:40:12.975Z,21.02
2018-04-04T07:42:39.220Z,21.06
2018-04-04T07:45:05.696Z,21.10
2018-04-04T07:47:31.941Z,21.13
2018-04-04T07:49:58.114Z,21.10
2018-04-04T07:52:24.577Z,21.11
2018-04-04T07:54:50.801Z,21.14
2018-04-04T07:57:17.018Z,21.13
2018-04-04T07:59:43.614Z,21.18
2018-04-04T08:02:09.811Z,21.21
2018-04-04T08:04:36.445Z,21.24
2018-04-04T08:07:02.681Z,21.26
2018-04-04T08:09:29.114Z,21.26
2018-04-04T08:11:55.318Z,21.29
2018-04-04T08:14:21.833Z,21.30
2018-04-04T08:16:47.995Z,21.27
2018-04-04T08:19:14.419Z,21.30
2018-04-04T08:21:40.686Z,21.32
2018-04-04T08:24:06.891Z,21.37
2018-04-04T08:26:33.068Z,21.35
2018-04-04T08:28:59.263Z,21.38
2018-04-04T08:31:25.505Z,21.42
2018-04-04T08:33:51.702Z,21.46
2018-04-04T08:36:17.901Z,21.52
2018-04-04T08:38:44.351Z,21.57
2018-04-04T08:41:10.546Z,21.60
2018-04-04T08:43:36.750Z,21.61
2018-04-04T08:46:04.562Z,21.63
2018-04-04T08:48:31.653Z,21.65
2018-04-04T08:51:02.519Z,21.68
2018-04-04T08:53:30.035Z,21.70
2018-04-04T08:55:58.451Z,21.73
2018-04-04T08:58:25.449Z,21.76
2018-04-04T09:00:52.419Z,21.81
2018-04-04T09:03:19.727Z,21.84
2018-04-04T09:05:47.188Z,21.85
2018-04-04T09:08:13.396Z,21.88
2018-04-04T09:10:39.850Z,21.91
2018-04-04T09:13:06.002Z,21.96
2018-04-04T09:15:32.194Z,22.00
2018-04-04T09:17:58.336Z,22.04
2018-04-04T09:20:24.510Z,22.08
2018-04-04T09:22:50.778Z,22.13
2018-04-04T09:25:16.932Z,22.16
2018-04-04T09:27:43.225Z,22.17
2018-04-04T09:30:09.375Z,22.18
2018-04-04T09:32:35.802Z,22.20
2018-04-04T09:35:01.987Z,22.22
2018-04-04T09:37:28.265Z,22.23
2018-04-04T09:39:54.453Z,22.26
2018-04-04T09:42:20.635Z,22.27
2018-04-04T09:44:46.796Z,22.27
2018-04-04T09:47:13.252Z,22.25
2018-04-04T09:49:39.470Z,22.25
2018-04-04T09:52:05.697Z,22.23
2018-04-04T09:54:31.842Z,22.21
2018-04-04T09:56:58.286Z,22.17
2018-04-04T09:59:24.518Z,22.19
2018-04-04T10:01:50.720Z,22.21
2018-04-04T10:04:16.938Z,22.23
2018-04-04T10:06:43.123Z,22.24
2018-04-04T10:09:09.326Z,22.27
2018-04-04T10:11:35.843Z,22.32
2018-04-04T10:14:02.049Z,22.32
2018-04-04T10:16:28.206Z,22.32
2018-04-04T10:18:54.547Z,22.32
2018-04-04T10:21:21.031Z,22.32
2018-04-04T10:23:47.857Z,22.32
2018-04-04T10:26:14.459Z,22.32
2018-04-04T10:28:40.706Z,22.34
2018-04-04T10:31:06.885Z,22.35
2018-04-04T10:33:33.047Z,22.37
2018-04-04T10:35:59.244Z,22.37
2018-04-04T10:38:25.447Z,22.40
2018-04-04T10:40:51.758Z,22.44
2018-04-04T10:43:17.935Z,22.49
2018-04-04T10:45:44.103Z,22.51
2018-04-04T10:48:10.412Z,22.52
2018-04-04T10:50:36.607Z,22.54
2018-04-04T10:53:02.850Z,22.57
2018-04-04T10:55:28.999Z,22.46
2018-04-04T10:57:55.241Z,22.62
2018-04-04T11:00:21.466Z,22.64
2018-04-04T11:02:47.679Z,22.67
2018-04-04T11:05:14.288Z,22.70
2018-04-04T11:07:40.471Z,22.73
2018-04-04T11:10:06.662Z,22.74
2018-04-04T11:12:33.210Z,22.74
2018-04-04T11:14:59.640Z,22.76
2018-04-04T11:17:25.816Z,22.79
2018-04-04T11:19:52.035Z,22.81
2018-04-04T11:22:18.455Z,22.83
2018-04-04T11:24:44.670Z,22.84
2018-04-04T11:27:10.906Z,22.88
2018-04-04T11:29:37.071Z,22.92
2018-04-04T11:32:03.323Z,22.95
2018-04-04T11:34:29.474Z,22.96
2018-04-04T11:36:55.624Z,22.94
2018-04-04T11:39:21.824Z,22.94
2018-04-04T11:41:48.040Z,22.93
2018-04-04T11:44:14.217Z,22.92
2018-04-04T11:46:47.430Z,22.93
2018-04-04T11:49:13.893Z,22.94
2018-04-04T11:51:40.444Z,22.97
2018-04-04T11:54:06.925Z,22.99
2018-04-04T11:56:33.705Z,22.99
2018-04-04T11:59:00.032Z,23.00
2018-04-04T12:01:26.255Z,23.03
2018-04-04T12:03:52.506Z,23.08
2018-04-04T12:06:19.012Z,23.14
2018-04-04T12:08:45.166Z,23.19
2018-04-04T12:11:11.377Z,23.20
2018-04-04T12:13:37.591Z,23.24
2018-04-04T12:16:03.803Z,23.31
2018-04-04T12:18:29.981Z,23.31
2018-04-04T12:20:56.186Z,23.29
2018-04-04T12:23:22.337Z,23.28
2018-04-04T12:25:48.559Z,23.23
2018-04-04T12:28:14.722Z,23.15
2018-04-04T12:30:40.950Z,23.06
2018-04-04T12:33:07.373Z,23.01
2018-04-04T12:35:33.535Z,22.95
2018-04-04T12:37:59.722Z,22.91
2018-04-04T12:40:26.222Z,22.89
2018-04-04T12:42:52.446Z,22.83
2018-04-04T12:45:18.686Z,22.85
2018-04-04T12:47:45.119Z,22.82
2018-04-04T12:50:12.361Z,22.75
2018-04-04T12:52:38.581Z,22.70
2018-04-04T12:55:04.789Z,22.68
2018-04-04T12:57:30.997Z,22.64
2018-04-04T12:59:57.154Z,22.60
2018-04-04T13:02:23.757Z,22.55
2018-04-04T13:04:49.920Z,22.52
2018-04-04T13:07:16.065Z,22.49
2018-04-04T13:09:42.290Z,22.45
2018-04-04T13:12:08.447Z,22.42
2018-04-04T13:14:34.641Z,22.38
2018-04-04T13:17:00.823Z,22.36
2018-04-04T13:19:27.284Z,22.33
2018-04-04T13:21:53.532Z,22.31
2018-04-04T13:24:19.741Z,22.29
2018-04-04T13:26:45.918Z,22.27
2018-04-04T13:29:12.437Z,22.26
2018-04-04T13:31:38.633Z,22.27
2018-04-04T13:34:04.803Z,22.28
2018-04-04T13:36:31.784Z,22.28
2018-04-04T13:38:57.938Z,22.28
2018-04-04T13:41:24.179Z,22.26
2018-04-04T13:43:50.364Z,22.24
2018-04-04T13:46:16.557Z,22.22
2018-04-04T13:48:42.785Z,22.22
2018-04-04T13:51:08.933Z,22.21
2018-04-04T13:53:35.324Z,22.14
2018-04-04T13:56:01.475Z,22.18
2018-04-04T13:58:27.880Z,22.16
2018-04-04T14:00:54.169Z,22.17
2018-04-04T14:03:20.426Z,22.17
2018-04-04T14:05:46.969Z,22.17
2018-04-04T14:08:13.164Z,22.15
2018-04-04T14:10:39.348Z,22.08
2018-04-04T14:13:05.863Z,22.09
2018-04-04T14:15:32.271Z,22.09
2018-04-04T14:17:58.421Z,22.09
2018-04-04T14:20:24.603Z,22.10
2018-04-04T14:22:50.800Z,22.10
2018-04-04T14:25:17.059Z,22.11
2018-04-04T14:27:43.201Z,22.11
2018-04-04T14:30:09.358Z,22.11
2018-04-04T14:32:35.537Z,22.09
2018-04-04T14:35:01.694Z,22.08
2018-04-04T14:37:27.881Z,22.06
2018-04-04T14:39:54.085Z,22.03
2018-04-04T14:42:20.342Z,22.05
2018-04-04T14:44:46.501Z,22.08
2018-04-04T14:47:12.678Z,22.11
2018-04-04T14:49:38.889Z,22.14
2018-04-04T14:52:05.056Z,22.14
2018-04-04T14:54:31.256Z,22.13
2018-04-04T14:56:57.461Z,22.10
2018-04-04T14:59:23.697Z,22.07
2018-04-04T15:01:49.900Z,22.06
2018-04-04T15:04:16.054Z,22.06
2018-04-04T15:06:42.238Z,22.06
2018-04-04T15:09:08.470Z,22.05
2018-04-04T15:11:34.720Z,22.04
2018-04-04T15:14:00.893Z,22.02
2018-04-04T15:16:27.113Z,22.00
2018-04-04T15:18:53.317Z,21.98
2018-04-04T15:21:19.838Z,21.97
2018-04-04T15:23:46.033Z,21.95
2018-04-04T15:26:12.236Z,21.95
2018-04-04T15:28:38.474Z,21.93
2018-04-04T15:31:04.636Z,21.94
2018-04-04T15:33:30.802Z,21.94
2018-04-04T15:35:56.954Z,21.93
2018-04-04T15:38:23.148Z,21.93
2018-04-04T15:40:49.480Z,21.93
2018-04-04T15:43:15.675Z,21.93
2018-04-04T15:45:41.841Z,21.92
2018-04-04T15:48:08.063Z,21.91
2018-04-04T15:50:34.224Z,21.89
2018-04-04T15:53:00.421Z,21.88
2018-04-04T15:55:26.601Z,21.88
2018-04-04T15:57:52.755Z,21.86
2018-04-04T16:00:19.284Z,21.85
2018-04-04T16:02:45.714Z,21.84
2018-04-04T16:05:11.918Z,21.80
2018-04-04T16:07:38.118Z,21.80
2018-04-04T16:10:04.336Z,21.80
2018-04-04T16:12:30.533Z,21.78
2018-04-04T16:14:56.717Z,21.76
2018-04-04T16:17:22.917Z,21.76
2018-04-04T16:19:49.108Z,21.74
2018-04-04T16:22:15.586Z,21.72
2018-04-04T16:24:42.073Z,21.70
2018-04-04T16:27:08.249Z,21.69
2018-04-04T16:29:34.733Z,21.68
2018-04-04T16:32:00.941Z,21.66
2018-04-04T16:34:27.132Z,21.64
2018-04-04T16:36:53.343Z,21.64
2018-04-04T16:39:19.559Z,21.63
2018-04-04T16:41:45.795Z,21.61
2018-04-04T16:44:12.335Z,21.64
2018-04-04T16:46:38.787Z,21.62
2018-04-04T16:49:05.090Z,21.61
2018-04-04T16:51:31.291Z,21.61
2018-04-04T16:53:57.460Z,21.61
2018-04-04T16:56:23.691Z,21.59
2018-04-04T16:58:49.880Z,21.57
2018-04-04T17:01:16.021Z,21.56
2018-04-04T17:03:42.512Z,21.55
2018-04-04T17:06:08.791Z,21.52
2018-04-04T17:08:35.313Z,21.52
2018-04-04T17:11:01.488Z,21.51
2018-04-04T17:13:27.698Z,21.48
2018-04-04T17:15:53.862Z,21.48
2018-04-04T17:18:20.028Z,21.46
2018-04-04T17:20:46.214Z,21.45
2018-04-04T17:23:12.779Z,21.43
2018-04-04T17:25:38.945Z,21.43
2018-04-04T17:28:05.171Z,21.43
2018-04-04T17:30:31.391Z,21.43
2018-04-04T17:32:57.543Z,21.40
2018-04-04T17:35:23.806Z,21.40
2018-04-04T17:37:50.089Z,21.40
2018-04-04T17:40:16.537Z,21.39
2018-04-04T17:42:42.756Z,21.40
2018-04-04T17:45:08.954Z,21.39
2018-04-04T17:47:35.110Z,21.38
2018-04-04T17:50:01.299Z,21.39
2018-04-04T17:52:27.822Z,21.38
2018-04-04T17:54:54.030Z,21.37
2018-04-04T17:57:20.270Z,21.36
2018-04-04T17:59:46.438Z,21.33
2018-04-04T18:02:12.680Z,21.38
2018-04-04T18:04:38.911Z,21.39
2018-04-04T18:07:05.242Z,21.39
2018-04-04T18:09:31.417Z,21.39
2018-04-04T18:11:57.578Z,21.40
2018-04-04T18:14:23.863Z,21.42
2018-04-04T18:16:50.035Z,21.42
2018-04-04T18:19:16.253Z,21.42
2018-04-04T18:21:42.412Z,21.42
2018-04-04T18:24:08.684Z,21.43
2018-04-04T18:26:35.004Z,21.43
2018-04-04T18:29:01.571Z,21.42
2018-04-04T18:31:27.734Z,21.40
2018-04-04T18:33:54.287Z,21.42
2018-04-04T18:36:20.470Z,21.39
2018-04-04T18:38:46.634Z,21.37
2018-04-04T18:41:12.881Z,21.35
2018-04-04T18:43:39.330Z,21.32
2018-04-04T18:46:05.506Z,21.31
2018-04-04T18:48:31.703Z,21.29
2018-04-04T18:50:57.857Z,21.28
2018-04-04T18:53:24.061Z,21.26
2018-04-04T18:55:50.274Z,21.27
2018-04-04T18:58:16.504Z,21.25
2018-04-04T19:00:42.666Z,21.25
2018-04-04T19:03:09.013Z,21.26
2018-04-04T19:05:35.184Z,21.25
2018-04-04T19:08:01.455Z,21.24
2018-04-04T19:10:27.664Z,21.22
2018-04-04T19:12:53.828Z,21.23
2018-04-04T19:15:20.031Z,21.23
2018-04-04T19:17:46.196Z,21.23
2018-04-04T19:20:12.418Z,21.24
2018-04-04T19:22:38.595Z,21.24
2018-04-04T19:25:04.893Z,21.26
2018-04-04T19:27:31.115Z,21.29
2018-04-04T19:29:57.563Z,21.31
2018-04-04T19:32:23.793Z,21.33
2018-04-04T19:34:50.341Z,21.34
2018-04-04T19:37:16.536Z,21.36
2018-04-04T19:39:42.696Z,21.34
2018-04-04T19:42:08.987Z,21.35
2018-04-04T19:44:35.134Z,21.33
2018-04-04T19:47:01.732Z,21.32
2018-04-04T19:49:27.868Z,21.32
2018-04-04T19:51:54.047Z,21.31
2018-04-04T19:54:20.557Z,21.31
2018-04-04T19:56:46.705Z,21.31
2018-04-04T19:59:13.118Z,21.31
2018-04-04T20:01:39.701Z,21.32
2018-04-04T20:04:05.878Z,21.33
2018-04-04T20:06:32.041Z,21.31
2018-04-04T20:08:58.271Z,21.29
2018-04-04T20:11:24.523Z,21.27
2018-04-04T20:13:50.710Z,21.26
2018-04-04T20:16:17.022Z,21.25
2018-04-04T20:18:43.312Z,21.26
2018-04-04T20:21:09.468Z,21.28
2018-04-04T20:23:35.658Z,21.27
2018-04-04T20:26:01.836Z,21.27
2018-04-04T20:28:28.037Z,21.26
2018-04-04T20:30:54.233Z,21.25
2018-04-04T20:33:20.724Z,21.24
2018-04-04T20:35:46.943Z,21.23
2018-04-04T20:38:13.099Z,21.23
2018-04-04T20:40:39.282Z,21.21
2018-04-04T20:43:05.843Z,21.22
2018-04-04T20:45:32.380Z,21.22
2018-04-04T20:47:58.592Z,21.21
2018-04-04T20:50:24.863Z,21.20
2018-04-04T20:52:51.035Z,21.20
2018-04-04T20:55:17.496Z,21.17
2018-04-04T20:57:43.984Z,21.21
2018-04-04T21:00:10.462Z,21.21
2018-04-04T21:02:36.699Z,21.21
2018-04-04T21:05:03.181Z,21.24
2018-04-04T21:07:29.461Z,21.23
2018-04-04T21:09:55.876Z,21.23
2018-04-04T21:12:22.349Z,21.23
2018-04-04T21:14:48.544Z,21.22
2018-04-04T21:17:14.711Z,21.22
2018-04-04T21:19:40.920Z,21.22
2018-04-04T21:22:07.130Z,21.23
2018-04-04T21:24:33.331Z,21.28
2018-04-04T21:26:59.895Z,21.29
2018-04-04T21:29:26.089Z,21.27
2018-04-04T21:31:52.315Z,21.30
2018-04-04T21:34:18.788Z,21.31
2018-04-04T21:36:44.998Z,21.32
2018-04-04T21:39:11.231Z,21.31
2018-04-04T21:41:37.393Z,21.31
2018-04-04T21:44:03.567Z,21.31
2018-04-04T21:46:29.760Z,21.31
2018-04-04T21:48:56.003Z,21.31
2018-04-04T21:51:22.235Z,21.30
2018-04-04T21:53:48.455Z,21.29
2018-04-04T21:56:14.703Z,21.32
2018-04-04T21:58:41.163Z,21.32
2018-04-04T22:01:07.322Z,21.32
2018-04-04T22:03:33.537Z,21.31
2018-04-04T22:05:59.723Z,21.30
2018-04-04T22:08:25.899Z,21.30
2018-04-04T22:10:52.713Z,21.30
2018-04-04T22:13:19.025Z,21.31
2018-04-04T22:15:45.189Z,21.31
2018-04-04T22:18:12.401Z,21.31
2018-04-04T22:20:39.491Z,21.30
2018-04-04T22:23:05.726Z,21.31
2018-04-04T22:25:31.897Z,21.33
2018-04-04T22:27:58.057Z,21.37
2018-04-04T22:30:24.321Z,21.36
2018-04-04T22:32:50.829Z,21.33
2018-04-04T22:35:17.251Z,21.30
2018-04-04T22:37:43.470Z,21.26
2018-04-04T22:40:09.633Z,21.24
2018-04-04T22:42:35.807Z,21.23
2018-04-04T22:45:01.995Z,21.24
2018-04-04T22:47:28.209Z,21.21
2018-04-04T22:49:54.370Z,21.17
2018-04-04T22:52:20.588Z,21.15
2018-04-04T22:54:47.022Z,21.13
2018-04-04T22:57:13.239Z,21.12
2018-04-04T22:59:39.522Z,21.11
2018-04-04T23:02:05.746Z,21.10
2018-04-04T23:04:31.974Z,21.12
2018-04-04T23:06:58.521Z,21.12
2018-04-04T23:09:24.703Z,21.11
2018-04-04T23:11:50.878Z,21.10
2018-04-04T23:14:17.121Z,21.10
2018-04-04T23:16:43.539Z,21.11
2018-04-04T23:19:09.767Z,21.11
2018-04-04T23:21:35.992Z,21.11
2018-04-04T23:24:02.312Z,21.10
2018-04-04T23:26:28.759Z,21.08
2018-04-04T23:28:55.298Z,21.04
2018-04-04T23:31:21.557Z,21.01
2018-04-04T23:33:47.723Z,20.99
2018-04-04T23:36:13.945Z,20.98
2018-04-04T23:38:40.128Z,20.98
2018-04-04T23:41:06.381Z,20.97
2018-04-04T23:43:32.571Z,20.96
2018-04-04T23:45:58.731Z,20.97
2018-04-04T23:48:24.963Z,20.98
2018-04-04T23:50:51.122Z,20.97
2018-04-04T23:53:17.447Z,20.99
2018-04-04T23:55:43.709Z,21.01
2018-04-04T23:58:09.937Z,21.00
